Time;durP1;ratioP1;P1;durP2;ratioP2;P2;SDS_P1;SDS_P2;PMS_P1;PMS_P2;Temp;Humidity;BMP_temperature;BMP_pressure;BME280_temperature;BME280_humidity;BME280_pressure;Samples;Min_cycle;Max_cycle;Signal;HPM_P1;HPM_P2
2021/05/28 00:00:22;;;;;;;7.97;6.05;;;;;;;14.29;88.25;94288.17;1652068;85;21928;-59
2021/05/28 00:02:48;;;;;;;9.23;6.42;;;;;;;14.25;88.75;94284.25;1651930;86;21082;-60
2021/05/28 00:05:16;;;;;;;12.15;6.25;;;;;;;14.29;89.05;94275.72;1650921;86;21024;-59
2021/05/28 00:07:43;;;;;;;7.20;6.08;;;;;;;14.33;89.32;94274.28;1654437;86;21016;-59
2021/05/28 00:10:10;;;;;;;9.78;6.65;;;;;;;14.37;89.34;94285.16;1652578;86;21586;-59
2021/05/28 00:12:38;;;;;;;7.33;6.20;;;;;;;14.35;89.29;94284.88;1650850;85;21092;-59
2021/05/28 00:15:08;;;;;;;7.35;6.55;;;;;;;14.33;89.04;94276.30;1650497;86;20977;-60
2021/05/28 00:17:35;;;;;;;8.58;5.78;;;;;;;14.33;89.06;94276.30;1652670;85;21013;-59
2021/05/28 00:20:05;;;;;;;11.28;6.60;;;;;;;14.37;88.84;94276.22;1650787;85;21000;-59
2021/05/28 00:22:33;;;;;;;9.60;6.95;;;;;;;14.40;88.84;94270.36;1650491;85;21008;-60
2021/05/28 00:25:00;;;;;;;8.53;6.05;;;;;;;14.40;88.81;94264.81;1644859;85;21107;-57
2021/05/28 00:27:30;;;;;;;8.18;6.67;;;;;;;14.36;88.91;94264.27;1652451;85;21123;-59
2021/05/28 00:29:59;;;;;;;6.70;6.10;;;;;;;14.33;89.04;94261.09;1651330;85;21195;-59
2021/05/28 00:32:27;;;;;;;12.43;6.25;;;;;;;14.31;89.15;94260.17;1651386;86;21004;-58
2021/05/28 00:34:54;;;;;;;7.97;6.97;;;;;;;14.27;89.27;94261.61;1651956;85;21152;-57
2021/05/28 00:37:21;;;;;;;8.80;7.10;;;;;;;14.22;89.55;94252.62;1653974;85;21105;-60
2021/05/28 00:39:48;;;;;;;9.63;6.75;;;;;;;14.18;89.95;94250.69;1652822;86;21621;-59
2021/05/28 00:42:14;;;;;;;12.15;6.92;;;;;;;14.21;90.16;94238.65;1650261;86;21005;-58
2021/05/28 00:44:41;;;;;;;8.05;6.50;;;;;;;14.24;90.16;94239.84;1646390;86;21056;-58
2021/05/28 00:47:08;;;;;;;12.47;7.05;;;;;;;14.22;90.14;94231.87;1654924;86;21028;-59
2021/05/28 00:49:35;;;;;;;6.72;6.05;;;;;;;14.16;89.88;94235.94;1651455;86;21092;-59
2021/05/28 00:52:03;;;;;;;7.67;5.80;;;;;;;14.13;89.81;94233.34;1654949;86;21032;-58
2021/05/28 00:54:30;;;;;;;7.87;6.12;;;;;;;14.09;89.32;94233.56;1650459;86;21627;-60
2021/05/28 00:56:58;;;;;;;7.78;6.60;;;;;;;14.00;89.25;94235.05;1651675;86;21547;-59
2021/05/28 00:59:25;;;;;;;8.93;6.87;;;;;;;13.94;89.47;94233.44;1650334;86;21534;-59
2021/05/28 01:01:54;;;;;;;11.28;7.35;;;;;;;13.88;89.71;94230.61;1653264;86;21720;-59
2021/05/28 01:04:21;;;;;;;10.98;6.97;;;;;;;13.87;90.08;94236.61;1654035;85;21079;-60
2021/05/28 01:06:47;;;;;;;6.78;6.00;;;;;;;13.90;90.49;94227.35;1653166;86;21050;-60
2021/05/28 01:09:16;;;;;;;7.70;6.75;;;;;;;13.94;90.15;94228.69;1651887;85;21000;-59
2021/05/28 01:11:42;;;;;;;8.10;6.80;;;;;;;13.94;89.97;94228.69;1650786;86;21080;-59
2021/05/28 01:14:09;;;;;;;9.05;7.15;;;;;;;13.95;89.95;94226.66;1652297;85;22210;-59
2021/05/28 01:16:36;;;;;;;7.08;6.37;;;;;;;13.95;90.11;94225.28;1652087;85;21483;-58
2021/05/28 01:19:04;;;;;;;7.37;6.10;;;;;;;13.97;90.04;94228.35;1651551;85;21614;-58
2021/05/28 01:21:32;;;;;;;8.98;6.85;;;;;;;13.96;89.89;94230.34;1650955;85;21135;-59
2021/05/28 01:23:58;;;;;;;7.05;6.37;;;;;;;14.01;89.83;94233.06;1652636;85;21136;-58
2021/05/28 01:26:25;;;;;;;8.08;6.45;;;;;;;14.02;89.51;94229.80;1652535;85;21159;-59
2021/05/28 01:28:52;;;;;;;8.60;6.12;;;;;;;14.04;89.27;94232.09;1649665;85;21052;-59
2021/05/28 01:31:20;;;;;;;7.53;5.42;;;;;;;14.01;88.95;94236.57;1646413;85;21064;-59
2021/05/28 01:33:47;;;;;;;8.03;5.67;;;;;;;13.97;88.86;94236.65;1653124;85;21016;-60
2021/05/28 01:36:13;;;;;;;6.72;5.97;;;;;;;13.90;89.03;94238.41;1649954;85;21175;-60
2021/05/28 01:38:40;;;;;;;11.65;6.42;;;;;;;13.82;89.05;94244.20;1647799;85;21797;-59
2021/05/28 01:41:06;;;;;;;7.42;6.20;;;;;;;13.74;89.23;94238.91;1646446;85;21538;-60
2021/05/28 01:43:35;;;;;;;9.05;6.35;;;;;;;13.67;89.29;94243.47;1652446;85;20989;-58
2021/05/28 01:46:02;;;;;;;7.67;6.55;;;;;;;13.65;89.59;94241.17;1650369;85;21131;-58
2021/05/28 01:48:30;;;;;;;6.80;5.53;;;;;;;13.67;89.82;94242.08;1652300;85;21079;-59
2021/05/28 01:50:56;;;;;;;7.95;6.33;;;;;;;13.69;89.77;94246.52;1653055;86;21190;-60
2021/05/28 01:53:24;;;;;;;10.95;6.20;;;;;;;13.68;90.04;94246.37;1653383;86;21080;-59
2021/05/28 01:55:51;;;;;;;6.70;5.50;;;;;;;13.69;90.09;94247.28;1654351;86;21036;-61
2021/05/28 01:58:22;;;;;;;9.58;6.42;;;;;;;13.74;89.75;94251.36;1651493;86;21064;-60
2021/05/28 02:00:51;;;;;;;9.05;6.58;;;;;;;13.73;89.48;94249.23;1632779;86;21654;-58
2021/05/28 02:03:20;;;;;;;6.85;6.15;;;;;;;13.72;89.64;94246.93;1643463;86;21771;-58
2021/05/28 02:05:48;;;;;;;6.75;6.15;;;;;;;13.72;89.59;94249.70;1653494;85;21551;-60
2021/05/28 02:08:15;;;;;;;8.65;6.80;;;;;;;13.69;89.69;94244.52;1652380;86;21033;-60
2021/05/28 02:10:43;;;;;;;9.60;6.37;;;;;;;13.69;89.87;94252.04;1649823;86;21084;-58
2021/05/28 02:13:11;;;;;;;8.95;7.08;;;;;;;13.72;90.20;94245.55;1652338;86;21044;-58
2021/05/28 02:15:38;;;;;;;9.85;7.97;;;;;;;13.79;90.49;94247.30;1649992;86;21773;-59
2021/05/28 02:18:06;;;;;;;12.68;8.23;;;;;;;13.90;90.82;94248.09;1653126;86;21143;-59
2021/05/28 02:20:33;;;;;;;8.85;7.55;;;;;;;14.01;90.68;94239.97;1654375;85;20976;-58
2021/05/28 02:23:01;;;;;;;8.63;6.55;;;;;;;14.10;90.35;94239.84;1650629;86;21036;-59
2021/05/28 02:25:29;;;;;;;11.93;7.60;;;;;;;14.13;89.62;94238.26;1647865;86;20976;-59
2021/05/28 02:27:56;;;;;;;13.05;7.25;;;;;;;14.09;89.37;94236.93;1650139;86;21129;-58
2021/05/28 02:30:23;;;;;;;14.05;8.00;;;;;;;14.04;89.59;94241.77;1655730;86;21070;-59
2021/05/28 02:32:50;;;;;;;11.30;6.95;;;;;;;14.09;89.93;94241.08;1649150;86;21072;-59
2021/05/28 02:35:17;;;;;;;14.47;8.63;;;;;;;14.18;89.88;94237.59;1653275;85;21069;-58
2021/05/28 02:37:43;;;;;;;10.32;8.33;;;;;;;14.25;89.73;94235.83;1656814;86;21056;-58
2021/05/28 02:40:12;;;;;;;11.25;8.13;;;;;;;14.32;89.59;94236.05;1655999;86;21857;-58
2021/05/28 02:42:40;;;;;;;14.25;7.87;;;;;;;14.37;89.23;94243.65;1644688;86;21111;-58
2021/05/28 02:45:08;;;;;;;10.30;7.83;;;;;;;14.36;88.83;94241.49;1651648;85;21104;-63
2021/05/28 02:47:35;;;;;;;12.73;8.13;;;;;;;14.31;88.81;94241.41;1650351;86;21700;-59
2021/05/28 02:50:02;;;;;;;12.05;7.75;;;;;;;14.29;89.18;94241.13;1649389;86;21654;-60
2021/05/28 02:52:29;;;;;;;14.18;9.30;;;;;;;14.31;89.29;94241.41;1648804;86;21618;-59
2021/05/28 02:54:56;;;;;;;12.65;8.78;;;;;;;14.30;89.21;94239.28;1653300;86;21486;-59
2021/05/28 02:57:22;;;;;;;11.38;7.10;;;;;;;14.30;89.10;94237.90;1656548;86;21657;-59
2021/05/28 02:59:49;;;;;;;15.58;8.23;;;;;;;14.33;88.79;94243.84;1649992;86;21657;-59
2021/05/28 03:02:18;;;;;;;17.75;10.58;;;;;;;14.25;88.32;94244.73;1652913;86;21119;-59
2021/05/28 03:04:45;;;;;;;15.03;8.63;;;;;;;14.17;88.20;94241.61;1651625;86;21676;-59
2021/05/28 03:07:11;;;;;;;12.75;8.48;;;;;;;14.10;88.50;94239.23;1650712;85;21064;-59
2021/05/28 03:09:38;;;;;;;13.25;8.15;;;;;;;14.11;89.12;94246.28;1651786;85;21135;-58
2021/05/28 03:12:06;;;;;;;15.75;9.68;;;;;;;14.18;89.58;94245.15;1649494;85;21015;-59
2021/05/28 03:14:33;;;;;;;21.90;11.25;;;;;;;14.18;89.49;94250.05;1652921;86;21571;-58
2021/05/28 03:17:00;;;;;;;22.50;14.90;;;;;;;14.18;89.66;94251.43;1651079;87;21574;-60
2021/05/28 03:19:31;;;;;;;15.58;11.93;;;;;;;14.18;89.92;94250.05;1621097;88;21089;-60
2021/05/28 03:24:42;;;;;;;23.47;14.53;;;;;;;14.17;90.10;94244.38;1650307;85;21059;-58
2021/05/28 03:27:10;;;;;;;36.58;22.25;;;;;;;14.19;90.44;94252.95;1650060;86;21102;-60
2021/05/28 03:29:37;;;;;;;22.62;13.75;;;;;;;14.18;90.27;94254.83;1651504;85;21107;-58
2021/05/28 03:32:06;;;;;;;21.77;14.43;;;;;;;14.15;90.05;94248.85;1656038;86;21032;-59
2021/05/28 03:34:32;;;;;;;22.27;15.32;;;;;;;14.13;90.21;94245.78;1626409;87;21107;-58
2021/05/28 03:37:00;;;;;;;18.82;13.28;;;;;;;14.16;90.19;94246.26;1629305;86;21623;-59
2021/05/28 03:39:27;;;;;;;20.50;12.53;;;;;;;14.14;90.21;94251.48;1603055;88;21677;-61
2021/05/28 03:41:54;;;;;;;20.32;12.95;;;;;;;14.12;90.28;94255.33;1603230;88;21129;-59
2021/05/28 03:44:20;;;;;;;23.05;13.05;;;;;;;14.06;90.57;94246.20;1617176;88;21113;-59
2021/05/28 03:46:48;;;;;;;19.67;11.93;;;;;;;14.05;90.94;94247.44;1627379;87;20989;-59
2021/05/28 03:49:14;;;;;;;16.55;11.90;;;;;;;14.09;91.20;94248.77;1608486;88;21056;-58
2021/05/28 03:51:41;;;;;;;15.85;10.28;;;;;;;14.17;91.18;94248.52;1653909;86;21028;-60
2021/05/28 03:54:08;;;;;;;14.73;11.75;;;;;;;14.26;91.05;94247.64;1657734;86;22275;-59
2021/05/28 03:56:34;;;;;;;15.65;12.65;;;;;;;14.32;90.71;94251.27;1653567;86;21036;-58
2021/05/28 03:59:01;;;;;;;13.90;11.55;;;;;;;14.32;90.58;94247.11;1649293;86;20988;-59
2021/05/28 04:01:28;;;;;;;13.18;10.65;;;;;;;14.33;90.57;94250.02;1656135;86;20913;-59
2021/05/28 04:03:56;;;;;;;19.95;12.03;;;;;;;14.35;90.51;94259.98;1651799;86;21088;-59
2021/05/28 04:06:23;;;;;;;16.25;12.68;;;;;;;14.40;90.80;94261.41;1648859;86;21695;-60
2021/05/28 04:08:49;;;;;;;16.45;12.18;;;;;;;14.48;90.93;94263.29;1648971;86;20948;-59
2021/05/28 04:11:18;;;;;;;16.17;12.40;;;;;;;14.55;90.57;94265.66;1652860;85;21053;-59
2021/05/28 04:13:44;;;;;;;12.75;11.38;;;;;;;14.56;90.14;94265.80;1651278;86;21639;-59
2021/05/28 04:16:11;;;;;;;15.70;10.30;;;;;;;14.52;90.24;94269.41;1651956;85;21000;-60
2021/05/28 04:18:38;;;;;;;14.43;11.22;;;;;;;14.52;90.28;94271.40;1653023;86;21175;-60
2021/05/28 04:21:05;;;;;;;19.82;15.68;;;;;;;14.56;90.38;94272.72;1645918;86;21556;-60
2021/05/28 04:23:32;;;;;;;16.10;13.22;;;;;;;14.61;90.21;94277.56;1628953;87;21029;-59
2021/05/28 04:25:58;;;;;;;13.70;11.20;;;;;;;14.62;89.92;94274.93;1608771;88;21038;-59
2021/05/28 04:28:26;;;;;;;11.12;9.75;;;;;;;14.62;89.93;94281.85;1616374;88;21025;-59
2021/05/28 04:30:52;;;;;;;15.53;11.05;;;;;;;14.62;89.93;94284.62;1616107;88;21145;-59
2021/05/28 04:33:19;;;;;;;13.43;10.95;;;;;;;14.62;89.63;94290.80;1644763;86;21004;-59
2021/05/28 04:35:46;;;;;;;11.28;10.08;;;;;;;14.57;89.75;94283.94;1650308;85;20993;-58
2021/05/28 04:38:13;;;;;;;13.50;9.70;;;;;;;14.56;89.74;94286.56;1650638;86;21718;-59
2021/05/28 04:40:40;;;;;;;11.50;10.30;;;;;;;14.52;89.78;94284.63;1651061;86;20989;-60
2021/05/28 04:43:07;;;;;;;13.18;10.05;;;;;;;14.47;89.91;94282.53;1651378;86;21108;-60
2021/05/28 04:45:35;;;;;;;14.87;10.78;;;;;;;14.48;90.44;94287.45;1652582;86;21686;-59
2021/05/28 04:48:03;;;;;;;14.98;11.03;;;;;;;14.53;90.97;94280.61;1654493;86;21068;-59
2021/05/28 04:50:34;;;;;;;12.85;10.58;;;;;;;14.65;91.27;94282.91;1647300;86;21008;-59
2021/05/28 04:53:02;;;;;;;12.13;9.87;;;;;;;14.73;90.98;94283.39;1655912;86;21108;-59
2021/05/28 04:55:29;;;;;;;13.70;10.18;;;;;;;14.82;90.93;94288.02;1650989;86;21075;-58
2021/05/28 04:57:56;;;;;;;13.10;10.08;;;;;;;14.89;90.61;94285.60;1647464;86;21020;-59
2021/05/28 05:00:23;;;;;;;17.57;12.13;;;;;;;14.91;89.89;94276.79;1653252;86;21642;-58
2021/05/28 05:02:51;;;;;;;13.78;11.43;;;;;;;14.89;89.80;94274.52;1626273;87;21139;-61
2021/05/28 05:05:17;;;;;;;11.73;9.68;;;;;;;14.86;89.69;94278.88;1632340;87;21003;-59
2021/05/28 05:07:44;;;;;;;12.07;9.65;;;;;;;14.88;89.94;94277.16;1626215;87;21057;-60
2021/05/28 05:10:12;;;;;;;10.32;8.28;;;;;;;14.91;89.89;94280.95;1648847;85;21063;-58
2021/05/28 05:12:39;;;;;;;11.65;9.10;;;;;;;14.92;89.83;94276.31;1651659;85;21087;-58
2021/05/28 05:15:08;;;;;;;8.80;7.90;;;;;;;14.93;89.69;94276.45;1654255;86;21020;-60
2021/05/28 05:17:35;;;;;;;9.33;7.97;;;;;;;14.94;89.57;94276.59;1652990;85;21518;-60
2021/05/28 05:20:02;;;;;;;8.75;7.80;;;;;;;14.97;89.58;94277.00;1653763;85;21108;-61
2021/05/28 05:22:28;;;;;;;8.53;7.65;;;;;;;14.99;89.38;94277.91;1649282;85;21138;-56
2021/05/28 05:24:55;;;;;;;9.85;6.58;;;;;;;14.99;89.51;94277.27;1654153;85;21115;-59
2021/05/28 05:27:22;;;;;;;7.00;5.60;;;;;;;15.01;89.60;94274.77;1660916;85;21658;-61
2021/05/28 05:29:48;;;;;;;6.87;6.08;;;;;;;15.05;89.71;94278.11;1650431;86;21036;-60
2021/05/28 05:32:17;;;;;;;6.28;5.67;;;;;;;15.06;89.28;94277.47;1653732;85;21141;-66
2021/05/28 05:34:45;;;;;;;10.48;5.97;;;;;;;15.01;89.34;94276.16;1650384;85;21052;-61
2021/05/28 05:37:12;;;;;;;9.23;6.37;;;;;;;15.00;89.67;94281.56;1645678;86;21160;-58
2021/05/28 05:39:38;;;;;;;6.17;5.58;;;;;;;15.01;89.96;94276.16;1639440;87;21566;-61
2021/05/28 05:42:07;;;;;;;7.83;6.33;;;;;;;15.04;89.97;94272.41;1638510;86;21079;-61
2021/05/28 05:44:33;;;;;;;8.63;7.00;;;;;;;15.06;89.70;94277.47;1630186;85;21672;-60
2021/05/28 05:47:00;;;;;;;11.22;7.00;;;;;;;15.07;89.59;94271.45;1630812;87;21647;-60
2021/05/28 05:49:27;;;;;;;7.20;5.45;;;;;;;15.09;89.73;94271.73;1651280;86;21059;-61
2021/05/28 05:51:53;;;;;;;7.15;5.62;;;;;;;15.15;89.81;94268.38;1626094;86;21581;-61
2021/05/28 05:54:20;;;;;;;9.90;6.03;;;;;;;15.21;89.56;94271.22;1643971;86;21121;-59
2021/05/28 05:56:47;;;;;;;6.47;5.42;;;;;;;15.26;89.25;94276.05;1635617;86;21142;-59
2021/05/28 05:59:14;;;;;;;6.83;5.70;;;;;;;15.31;89.15;94270.60;1634058;86;21421;-62
2021/05/28 06:01:41;;;;;;;6.95;5.62;;;;;;;15.35;88.95;94271.14;1636980;85;21070;-60
2021/05/28 06:04:08;;;;;;;9.38;5.85;;;;;;;15.40;88.80;94273.84;1651522;85;21114;-60
2021/05/28 06:06:35;;;;;;;7.17;4.85;;;;;;;15.44;88.48;94271.61;1638015;85;21020;-60
2021/05/28 06:09:03;;;;;;;8.33;5.62;;;;;;;15.45;88.22;94272.52;1643024;85;21123;-60
2021/05/28 06:11:30;;;;;;;6.90;6.12;;;;;;;15.45;88.00;94272.52;1636083;86;21098;-61
2021/05/28 06:13:58;;;;;;;8.33;7.17;;;;;;;15.50;88.13;94270.41;1623141;86;21103;-59
2021/05/28 06:16:25;;;;;;;11.60;6.58;;;;;;;15.52;87.94;94271.31;1628129;86;21096;-61
2021/05/28 06:18:52;;;;;;;8.78;5.37;;;;;;;15.57;87.87;94271.98;1626257;86;21729;-60
2021/05/28 06:21:19;;;;;;;6.90;5.42;;;;;;;15.61;87.48;94266.98;1633381;86;21460;-62
2021/05/28 06:23:45;;;;;;;9.18;7.28;;;;;;;15.62;86.58;94264.34;1628689;87;21040;-58
2021/05/28 06:26:12;;;;;;;8.95;5.85;;;;;;;15.65;86.31;94265.52;1633619;86;21114;-60
2021/05/28 06:28:39;;;;;;;9.83;7.30;;;;;;;15.73;86.34;94262.41;1629586;85;21118;-59
2021/05/28 06:31:06;;;;;;;6.92;6.22;;;;;;;15.77;86.12;94267.11;1609675;86;21608;-61
2021/05/28 06:33:32;;;;;;;8.68;5.10;;;;;;;15.81;85.72;94260.73;1640226;85;22550;-61
2021/05/28 06:35:59;;;;;;;8.40;6.37;;;;;;;15.85;85.51;94260.48;1619730;86;21425;-59
2021/05/28 06:38:26;;;;;;;9.33;6.28;;;;;;;15.89;85.38;94265.95;1632505;86;21124;-60
2021/05/28 06:40:53;;;;;;;7.40;6.15;;;;;;;15.86;85.21;94263.39;1622439;87;21623;-61
2021/05/28 06:43:21;;;;;;;11.10;5.87;;;;;;;15.84;84.87;94255.59;1588550;87;21099;-59
2021/05/28 06:45:47;;;;;;;7.72;5.72;;;;;;;15.86;83.93;94264.17;1595507;87;22215;-59
2021/05/28 06:48:14;;;;;;;8.93;5.75;;;;;;;15.91;83.22;94260.67;1618627;86;21081;-58
2021/05/28 06:50:41;;;;;;;7.40;4.80;;;;;;;15.93;82.92;94263.71;1634654;86;21048;-59
2021/05/28 06:53:09;;;;;;;9.75;5.25;;;;;;;15.96;82.37;94261.36;1634510;86;21185;-62
2021/05/28 06:55:38;;;;;;;8.00;5.50;;;;;;;15.95;81.78;94262.59;1628885;86;21097;-60
2021/05/28 06:58:06;;;;;;;9.48;6.15;;;;;;;15.94;81.69;94264.48;1638028;86;21119;-58
2021/05/28 07:00:33;;;;;;;7.17;5.15;;;;;;;15.85;81.45;94254.33;1629773;86;21394;-58
2021/05/28 07:03:00;;;;;;;8.05;5.05;;;;;;;15.83;80.73;94258.23;1632617;86;21124;-59
2021/05/28 07:05:28;;;;;;;7.28;4.80;;;;;;;15.85;80.28;94257.72;1625269;87;21322;-63
2021/05/28 07:07:56;;;;;;;8.68;4.85;;;;;;;15.86;80.01;94261.39;1634732;86;21082;-62
2021/05/28 07:10:24;;;;;;;10.78;8.40;;;;;;;15.87;80.25;94257.37;1627707;86;21085;-66
2021/05/28 07:12:51;;;;;;;17.48;13.90;;;;;;;15.90;80.58;94258.41;1629130;86;21690;-63
2021/05/28 07:15:18;;;;;;;12.47;7.20;;;;;;;15.88;81.58;94263.69;1634263;86;21139;-62
2021/05/28 07:17:48;;;;;;;6.45;5.62;;;;;;;15.86;81.83;94263.39;1623873;87;21227;-67
2021/05/28 07:20:14;;;;;;;8.03;5.65;;;;;;;15.82;81.97;94258.09;1621337;86;21442;-60
2021/05/28 07:22:41;;;;;;;7.10;5.33;;;;;;;15.85;82.31;94261.27;1636643;86;21095;-57
2021/05/28 07:25:10;;;;;;;5.80;5.03;;;;;;;15.91;82.32;94254.37;1596322;88;21109;-60
2021/05/28 07:27:36;;;;;;;7.42;5.42;;;;;;;15.93;82.02;94258.16;1637270;86;21095;-61
2021/05/28 07:30:07;;;;;;;10.05;6.00;;;;;;;15.97;81.68;94260.72;1639893;86;21692;-60
2021/05/28 07:32:38;;;;;;;13.50;10.13;;;;;;;15.99;81.97;94256.83;1648531;85;21102;-59
2021/05/28 07:35:07;;;;;;;7.40;6.10;;;;;;;16.04;81.67;94252.70;1641190;85;21130;-58
2021/05/28 07:37:34;;;;;;;6.80;5.78;;;;;;;16.13;81.40;94253.15;1648620;85;21103;-59
2021/05/28 07:40:00;;;;;;;11.73;7.65;;;;;;;16.12;81.13;94250.98;1628059;86;21112;-60
2021/05/28 07:42:27;;;;;;;9.80;6.40;;;;;;;16.08;81.29;94256.01;1602280;86;21147;-57
2021/05/28 07:44:54;;;;;;;8.65;6.67;;;;;;;16.05;81.04;94254.22;1639740;85;21751;-59
2021/05/28 07:47:21;;;;;;;10.03;6.72;;;;;;;16.06;80.61;94252.22;1640462;84;21408;-57
2021/05/28 07:49:48;;;;;;;11.40;7.40;;;;;;;16.13;81.02;94251.11;1641678;85;21092;-58
2021/05/28 07:52:14;;;;;;;9.25;7.05;;;;;;;16.18;81.14;94253.19;1618084;86;21672;-61
2021/05/28 07:54:42;;;;;;;8.80;7.30;;;;;;;16.21;81.43;94254.20;1649164;85;21048;-61
2021/05/28 07:57:08;;;;;;;9.80;7.17;;;;;;;16.24;81.67;94253.97;1629670;86;21118;-58
2021/05/28 07:59:35;;;;;;;11.05;8.00;;;;;;;16.26;81.24;94255.63;1626244;86;21754;-60
2021/05/28 08:02:03;;;;;;;11.55;8.55;;;;;;;16.26;81.30;94252.84;1633813;86;21111;-57
2021/05/28 08:04:29;;;;;;;12.28;7.37;;;;;;;16.19;81.51;94256.09;1637546;86;21637;-60
2021/05/28 08:06:56;;;;;;;9.38;7.33;;;;;;;16.18;81.42;94255.97;1645012;85;21101;-61
2021/05/28 08:09:23;;;;;;;7.65;6.25;;;;;;;16.23;81.87;94259.39;1646119;86;21649;-63
2021/05/28 08:11:51;;;;;;;11.05;8.33;;;;;;;16.25;82.41;94265.21;1622111;86;21325;-60
2021/05/28 08:14:19;;;;;;;11.85;8.30;;;;;;;16.21;82.36;94266.07;1635997;86;21095;-61
2021/05/28 08:16:46;;;;;;;7.67;6.60;;;;;;;16.15;82.71;94275.00;1654239;85;21134;-62
2021/05/28 08:19:13;;;;;;;11.10;6.70;;;;;;;16.18;82.97;94269.06;1636442;85;21109;-60
2021/05/28 08:21:40;;;;;;;9.98;7.75;;;;;;;16.17;82.65;94280.81;1634337;87;21104;-61
2021/05/28 08:24:09;;;;;;;8.50;6.65;;;;;;;16.14;82.83;94272.09;1643064;86;21070;-61
2021/05/28 08:26:36;;;;;;;15.98;8.10;;;;;;;16.05;82.67;94279.20;1641816;86;21622;-61
2021/05/28 08:29:04;;;;;;;11.45;7.67;;;;;;;15.95;83.19;94275.08;1636492;85;21701;-60
2021/05/28 08:31:33;;;;;;;10.93;7.72;;;;;;;15.92;83.57;94273.93;1620794;87;21208;-60
2021/05/28 08:34:00;;;;;;;9.60;7.40;;;;;;;15.86;83.87;94272.50;1641075;85;21215;-60
2021/05/28 08:36:27;;;;;;;10.38;7.15;;;;;;;15.87;84.35;94276.79;1633391;86;21700;-65
2021/05/28 08:38:56;;;;;;;8.43;7.08;;;;;;;15.86;84.69;94273.11;1624275;86;21254;-61
2021/05/28 08:41:23;;;;;;;9.40;8.28;;;;;;;15.83;84.74;94278.26;1635982;87;21666;-59
2021/05/28 08:43:50;;;;;;;9.95;8.20;;;;;;;15.80;84.91;94271.70;1634368;85;21106;-61
2021/05/28 08:46:17;;;;;;;10.50;7.28;;;;;;;15.79;85.19;94279.88;1637444;86;21067;-62
2021/05/28 08:48:44;;;;;;;11.55;7.60;;;;;;;15.82;85.66;94273.96;1637676;85;21100;-61
2021/05/28 08:51:11;;;;;;;7.95;5.65;;;;;;;15.83;85.57;94281.03;1642160;86;21071;-60
2021/05/28 08:53:38;;;;;;;12.85;7.70;;;;;;;15.85;85.53;94286.23;1642087;85;21103;-61
2021/05/28 08:56:09;;;;;;;9.83;6.97;;;;;;;15.83;85.54;94283.80;1646425;86;21094;-60
2021/05/28 08:58:36;;;;;;;8.18;7.10;;;;;;;15.84;85.64;94286.09;1628642;86;21074;-59
2021/05/28 09:01:04;;;;;;;10.15;6.47;;;;;;;15.88;85.55;94285.24;1625065;86;21111;-66
2021/05/28 09:03:32;;;;;;;9.70;6.75;;;;;;;15.93;85.31;94282.39;1629469;86;21122;-60
2021/05/28 09:06:01;;;;;;;14.47;9.40;;;;;;;15.97;85.03;94280.92;1635916;86;21095;-69
2021/05/28 09:08:34;;;;;;;9.45;7.60;;;;;;;16.04;85.33;94285.23;1645932;86;21064;-59
2021/05/28 09:11:14;;;;;;;11.15;7.70;;;;;;;16.13;84.75;94277.48;1648213;86;21189;-62
2021/05/28 09:13:49;;;;;;;12.50;6.85;;;;;;;16.28;84.69;94278.87;1632170;87;21341;-60
2021/05/28 09:16:26;;;;;;;9.45;6.37;;;;;;;16.38;83.91;94275.30;1615978;87;21112;-66
2021/05/28 09:18:57;;;;;;;9.88;6.50;;;;;;;16.40;82.81;94269.37;1596828;87;21116;-61
2021/05/28 09:21:32;;;;;;;;;;;;;;;16.40;81.81;94271.40;1576064;89;21100;-56
2021/05/28 09:24:05;;;;;;;8.90;6.75;;;;;;;16.38;81.66;94271.14;1581635;89;20261;-64
2021/05/28 09:26:32;;;;;;;13.05;7.72;;;;;;;16.38;82.39;94273.91;1583428;88;21161;-62
2021/05/28 09:28:59;;;;;;;12.45;7.35;;;;;;;16.45;82.86;94274.21;1583730;87;22051;-57
2021/05/28 09:31:32;;;;;;;7.60;6.33;;;;;;;16.53;82.66;94280.81;1595360;88;21059;-61
2021/05/28 09:33:58;;;;;;;7.33;5.72;;;;;;;16.57;82.34;94281.98;1635111;85;21118;-60
2021/05/28 09:36:36;;;;;;;7.05;5.83;;;;;;;16.60;81.92;94280.36;1639485;86;21044;-61
2021/05/28 09:39:11;;;;;;;8.25;6.12;;;;;;;16.59;81.63;94278.07;1642572;86;21177;-60
2021/05/28 09:41:53;;;;;;;8.05;6.28;;;;;;;16.57;81.41;94273.00;1634058;86;21768;-61
2021/05/28 09:44:25;;;;;;;7.40;5.78;;;;;;;16.49;81.57;94274.73;1631339;86;21087;-59
2021/05/28 09:47:17;;;;;;;7.00;6.30;;;;;;;16.35;81.23;94285.37;1639653;86;21201;-60
2021/05/28 09:49:50;;;;;;;11.40;7.75;;;;;;;16.23;81.54;94293.31;1633856;86;21152;-59
2021/05/28 09:52:21;;;;;;;9.63;6.78;;;;;;;16.17;81.94;94287.75;1637536;86;21153;-61
2021/05/28 09:54:58;;;;;;;12.75;8.13;;;;;;;16.18;81.59;94287.88;1633427;86;21115;-59
2021/05/28 09:57:34;;;;;;;10.68;7.72;;;;;;;16.21;81.52;94286.89;1636074;86;21819;-60
2021/05/28 10:00:11;;;;;;;11.55;8.05;;;;;;;16.23;81.78;94287.16;1642439;86;21113;-59
2021/05/28 10:02:45;;;;;;;9.98;6.85;;;;;;;16.24;81.73;94288.67;1635849;86;21118;-59
2021/05/28 10:05:15;;;;;;;10.60;7.12;;;;;;;16.25;81.58;94286.03;1625593;85;21182;-61
2021/05/28 10:07:42;;;;;;;11.48;8.03;;;;;;;16.21;81.59;94293.05;1630843;86;21148;-62
2021/05/28 10:10:10;;;;;;;10.70;6.65;;;;;;;16.14;82.20;94295.68;1633133;86;21071;-61
2021/05/28 10:12:37;;;;;;;5.97;5.37;;;;;;;16.08;81.55;94297.63;1632367;86;21031;-60
2021/05/28 10:15:09;;;;;;;7.03;6.33;;;;;;;16.07;81.07;94291.95;1655504;86;21075;-59
2021/05/28 10:17:35;;;;;;;11.43;7.40;;;;;;;16.05;81.44;94290.30;1628784;86;21192;-61
2021/05/28 10:20:05;;;;;;;10.82;7.05;;;;;;;16.08;81.92;94296.25;1628035;86;21113;-61
2021/05/28 10:22:32;;;;;;;8.28;6.33;;;;;;;16.11;82.43;94297.28;1611732;87;21317;-61
2021/05/28 10:25:01;;;;;;;7.72;5.50;;;;;;;16.14;82.40;94299.07;1627756;86;21743;-59
2021/05/28 10:27:27;;;;;;;7.92;6.22;;;;;;;16.11;82.23;94293.13;1635875;86;21607;-59
2021/05/28 10:29:55;;;;;;;8.40;6.53;;;;;;;16.16;82.03;94295.17;1618270;87;21841;-60
2021/05/28 10:32:22;;;;;;;8.05;5.95;;;;;;;16.19;82.03;94297.73;1626697;87;21298;-61
2021/05/28 10:35:10;;;;;;;8.03;6.50;;;;;;;16.17;81.59;94303.02;1609951;87;21549;-60
2021/05/28 10:37:44;;;;;;;15.80;9.28;;;;;;;16.17;81.27;94298.86;1591196;88;21175;-60
2021/05/28 10:40:33;;;;;;;6.97;6.00;;;;;;;16.22;81.56;94306.45;1585079;88;21208;-61
2021/05/28 10:43:05;;;;;;;9.38;6.28;;;;;;;16.26;81.39;94308.37;1590702;87;21105;-61
2021/05/28 10:46:04;;;;;;;6.75;6.10;;;;;;;16.27;81.60;94307.11;1639706;85;21140;-60
2021/05/28 10:48:45;;;;;;;8.43;5.85;;;;;;;16.22;81.14;94312.62;1636314;85;21049;-60
2021/05/28 10:51:16;;;;;;;7.30;6.05;;;;;;;16.12;80.24;94307.87;1639408;85;21499;-59
2021/05/28 10:53:58;;;;;;;8.45;6.08;;;;;;;16.07;80.69;94304.44;1622893;86;21691;-62
2021/05/28 10:56:28;;;;;;;10.10;6.42;;;;;;;15.98;80.25;94308.02;1645424;86;21077;-60
2021/05/28 10:59:15;;;;;;;9.95;7.12;;;;;;;15.88;80.36;94307.44;1633187;85;21098;-61
2021/05/28 11:01:52;;;;;;;7.87;6.40;;;;;;;15.83;80.88;94302.61;1628453;85;21165;-62
2021/05/28 11:04:26;;;;;;;7.83;7.03;;;;;;;15.80;81.32;94303.59;1641447;85;21166;-61
2021/05/28 11:07:00;;;;;;;;;;;;;;;15.76;80.86;94309.97;1631719;86;21126;-60
2021/05/28 11:09:48;;;;;;;9.58;7.12;;;;;;;15.78;80.88;94315.03;1631693;86;20560;-61
2021/05/28 11:12:39;;;;;;;7.03;6.33;;;;;;;15.69;80.12;94309.03;1633791;86;21085;-59
2021/05/28 11:15:18;;;;;;;6.00;5.35;;;;;;;15.61;80.72;94307.95;1639828;85;21155;-60
2021/05/28 11:18:02;;;;;;;10.63;7.55;;;;;;;15.60;80.86;94313.98;1629011;86;21033;-59
2021/05/28 11:20:36;;;;;;;5.75;5.00;;;;;;;15.57;80.69;94310.17;1624716;86;21189;-61
2021/05/28 11:23:14;;;;;;;5.53;4.87;;;;;;;15.58;80.98;94312.33;1633514;86;21283;-60
2021/05/28 11:25:51;;;;;;;5.45;4.95;;;;;;;15.58;81.22;94315.10;1641497;85;21163;-60
2021/05/28 11:28:19;;;;;;;7.47;6.12;;;;;;;15.57;81.36;94308.03;1625629;85;21179;-59
2021/05/28 11:30:54;;;;;;;8.35;6.53;;;;;;;15.54;81.65;94315.31;1610694;86;21125;-59
2021/05/28 11:33:38;;;;;;;12.25;6.83;;;;;;;15.51;81.78;94311.38;1626408;86;21090;-59
2021/05/28 11:36:30;;;;;;;9.33;6.70;;;;;;;15.49;82.40;94311.09;1619765;86;21259;-59
2021/05/28 11:39:00;;;;;;;7.80;6.78;;;;;;;15.52;82.47;94305.33;1613853;86;21160;-60